createdAt,value
2022-11-19T00:04:26.864Z,15.58
2022-11-19T00:09:30.438Z,15.22
2022-11-19T00:14:35.742Z,14.90
2022-11-19T00:19:39.280Z,14.77
2022-11-19T00:24:42.834Z,14.57
2022-11-19T00:29:48.024Z,14.44
2022-11-19T00:34:51.597Z,14.24
2022-11-19T00:39:55.129Z,14.14
2022-11-19T00:45:00.372Z,14.04
2022-11-19T00:50:03.997Z,13.89
2022-11-19T00:55:08.668Z,13.76
2022-11-19T01:00:16.183Z,13.66
2022-11-19T01:05:19.867Z,13.45
2022-11-19T01:10:23.527Z,14.15
2022-11-19T01:15:28.816Z,13.70
2022-11-19T01:20:32.415Z,13.35
2022-11-19T01:25:35.980Z,13.08
2022-11-19T01:30:44.320Z,13.04
2022-11-19T01:35:56.679Z,13.08
2022-11-19T01:41:00.513Z,12.97
2022-11-19T01:46:06.088Z,12.75
2022-11-19T01:51:13.494Z,12.45
2022-11-19T01:56:21.443Z,12.42
2022-11-19T02:01:27.100Z,12.45
2022-11-19T02:06:31.644Z,12.29
2022-11-19T02:12:03.834Z,12.13
2022-11-19T02:17:19.324Z,11.61
2022-11-19T02:22:43.891Z,11.69
2022-11-19T02:28:08.954Z,11.83
2022-11-19T02:33:23.487Z,11.49
2022-11-19T02:38:32.631Z,11.47
2022-11-19T02:43:41.865Z,11.43
2022-11-19T02:48:51.713Z,11.46
2022-11-19T02:53:55.261Z,11.30
2022-11-19T02:58:59.460Z,11.13
2022-11-19T03:04:05.302Z,11.08
2022-11-19T03:09:08.884Z,11.02
2022-11-19T03:14:20.868Z,10.83
2022-11-19T03:19:35.329Z,10.90
2022-11-19T03:24:44.285Z,10.87
2022-11-19T03:29:53.710Z,11.03
2022-11-19T03:35:02.731Z,10.81
2022-11-19T03:40:08.635Z,10.51
2022-11-19T03:45:16.805Z,10.37
2022-11-19T03:50:29.553Z,10.53
2022-11-19T03:55:36.343Z,10.30
2022-11-19T04:00:40.168Z,10.37
2022-11-19T04:05:45.332Z,10.40
2022-11-19T04:10:48.928Z,10.23
2022-11-19T04:15:53.190Z,10.03
2022-11-19T04:20:58.401Z,10.15
2022-11-19T04:26:01.933Z,10.05
2022-11-19T04:31:05.710Z,9.83
2022-11-19T04:36:11.185Z,9.93
2022-11-19T04:41:14.729Z,10.09
2022-11-19T04:46:18.293Z,9.99
2022-11-19T04:51:23.542Z,9.99
2022-11-19T04:56:27.147Z,9.84
2022-11-19T05:01:30.826Z,9.79
2022-11-19T05:06:36.097Z,9.72
2022-11-19T05:11:39.670Z,9.80
2022-11-19T05:16:43.236Z,9.79
2022-11-19T05:21:48.428Z,9.71
2022-11-19T05:26:51.985Z,9.63
2022-11-19T05:31:55.529Z,9.54
2022-11-19T05:37:01.583Z,9.40
2022-11-19T05:42:05.291Z,9.39
2022-11-19T05:47:08.818Z,9.48
2022-11-19T05:52:14.050Z,9.61
2022-11-19T05:57:17.747Z,9.68
2022-11-19T06:02:21.427Z,9.71
2022-11-19T06:07:26.735Z,9.81
2022-11-19T06:12:30.341Z,9.71
2022-11-19T06:17:33.966Z,9.46
2022-11-19T06:22:58.945Z,9.19
2022-11-19T06:28:02.504Z,9.00
2022-11-19T06:33:06.066Z,8.91
2022-11-19T06:38:11.244Z,8.96
2022-11-19T06:43:14.850Z,8.76
2022-11-19T06:48:18.481Z,8.51
2022-11-19T06:53:24.103Z,8.54
2022-11-19T06:58:28.383Z,8.44
2022-11-19T07:03:32.008Z,8.18
2022-11-19T07:08:37.917Z,8.13
2022-11-19T07:13:41.492Z,8.21
2022-11-19T07:18:45.057Z,8.06
2022-11-19T07:23:51.168Z,7.98
2022-11-19T07:28:56.275Z,7.98
2022-11-19T07:34:02.227Z,7.97
2022-11-19T07:39:07.714Z,8.03
2022-11-19T07:44:11.353Z,7.79
2022-11-19T07:49:15.572Z,8.06
2022-11-19T07:54:20.868Z,8.26
2022-11-19T07:59:24.465Z,8.39
2022-11-19T08:04:29.330Z,8.35
2022-11-19T08:09:34.794Z,8.57
2022-11-19T08:14:38.410Z,8.41
2022-11-19T08:19:42.041Z,8.42
2022-11-19T08:24:47.828Z,8.52
2022-11-19T08:29:51.506Z,8.58
2022-11-19T08:34:55.033Z,8.48
2022-11-19T08:40:00.211Z,8.36
2022-11-19T08:45:03.792Z,8.48
2022-11-19T08:50:07.846Z,8.52
2022-11-19T08:55:13.232Z,8.52
2022-11-19T09:00:20.288Z,8.50
2022-11-19T09:05:24.180Z,8.44
2022-11-19T09:10:29.701Z,8.46
2022-11-19T09:15:33.832Z,8.47
2022-11-19T09:20:37.563Z,8.42
2022-11-19T09:25:42.815Z,8.30
2022-11-19T09:30:46.418Z,8.07
2022-11-19T09:35:50.057Z,8.09
2022-11-19T09:40:57.455Z,7.87
2022-11-19T09:46:11.041Z,7.88
2022-11-19T09:51:17.793Z,7.92
2022-11-19T09:56:29.539Z,7.99
2022-11-19T10:01:41.992Z,7.93
2022-11-19T10:06:55.318Z,8.04
2022-11-19T10:12:12.977Z,7.78
2022-11-19T10:17:29.352Z,7.80
2022-11-19T10:22:39.424Z,7.44
2022-11-19T10:27:48.628Z,7.40
2022-11-19T10:32:58.154Z,7.51
2022-11-19T10:38:04.715Z,7.55
2022-11-19T10:43:23.104Z,7.67
2022-11-19T10:48:42.369Z,7.54
2022-11-19T10:53:47.031Z,7.50
2022-11-19T10:58:55.137Z,7.20
2022-11-19T11:04:07.786Z,7.05
2022-11-19T11:09:11.319Z,6.93
2022-11-19T11:14:18.506Z,6.96
2022-11-19T11:19:22.635Z,7.06
2022-11-19T11:24:33.383Z,7.16
2022-11-19T11:29:38.651Z,7.20
2022-11-19T11:34:44.363Z,7.14
2022-11-19T11:39:53.363Z,7.26
2022-11-19T11:45:00.720Z,7.44
2022-11-19T11:50:09.680Z,7.30
2022-11-19T11:55:16.319Z,7.15
2022-11-19T12:00:36.451Z,6.86
2022-11-19T12:05:50.317Z,6.77
2022-11-19T12:11:01.220Z,6.69
2022-11-19T12:16:11.986Z,6.55
2022-11-19T12:21:27.465Z,6.87
2022-11-19T12:26:41.236Z,6.71
2022-11-19T12:32:05.660Z,6.59
2022-11-19T12:37:23.273Z,6.47
2022-11-19T12:42:45.476Z,6.46
2022-11-19T12:48:12.577Z,6.13
2022-11-19T12:53:39.284Z,6.05
2022-11-19T12:58:55.566Z,6.11
2022-11-19T13:04:05.708Z,5.98
2022-11-19T13:09:15.929Z,6.21
2022-11-19T13:14:28.671Z,6.17
2022-11-19T13:19:38.952Z,6.02
2022-11-19T13:24:47.331Z,5.92
2022-11-19T13:29:58.485Z,5.85
2022-11-19T13:35:15.106Z,5.74
2022-11-19T13:40:25.800Z,5.79
2022-11-19T13:45:30.084Z,5.66
2022-11-19T13:50:41.476Z,5.70
2022-11-19T13:55:46.671Z,5.78
2022-11-19T14:01:29.053Z,5.71
2022-11-19T14:06:57.375Z,5.56
2022-11-19T14:12:26.401Z,5.37
2022-11-19T14:17:43.008Z,5.33
2022-11-19T14:22:56.040Z,5.55
2022-11-19T14:28:37.719Z,5.65
2022-11-19T14:33:59.657Z,5.47
2022-11-19T14:39:15.289Z,5.39
2022-11-19T14:44:35.624Z,5.42
2022-11-19T14:49:40.627Z,5.41
2022-11-19T14:54:53.061Z,5.60
2022-11-19T14:59:59.870Z,5.64
2022-11-19T15:05:15.551Z,5.44
2022-11-19T15:10:34.070Z,5.82
2022-11-19T15:15:41.651Z,6.20
2022-11-19T15:21:03.996Z,6.75
2022-11-19T15:26:19.326Z,7.55
2022-11-19T15:31:40.911Z,7.92
2022-11-19T15:36:47.920Z,8.16
2022-11-19T15:41:57.407Z,8.47
2022-11-19T15:47:04.908Z,8.62
2022-11-19T15:52:18.414Z,8.69
2022-11-19T15:57:27.934Z,9.04
2022-11-19T16:02:37.158Z,9.30
2022-11-19T16:07:41.650Z,9.33
2022-11-19T16:12:57.304Z,9.47
2022-11-19T16:18:00.885Z,9.65
2022-11-19T16:23:06.639Z,10.22
2022-11-19T16:28:15.452Z,10.51
2022-11-19T16:33:21.024Z,11.23
2022-11-19T16:38:27.819Z,12.02
2022-11-19T16:43:35.136Z,12.51
2022-11-19T16:48:56.461Z,12.75
2022-11-19T16:54:00.644Z,13.14
2022-11-19T16:59:06.981Z,13.43
2022-11-19T17:04:15.186Z,13.67
2022-11-19T17:09:35.561Z,13.63
2022-11-19T17:14:51.591Z,13.71
2022-11-19T17:19:55.169Z,13.86
2022-11-19T17:25:01.624Z,14.26
2022-11-19T17:30:11.178Z,14.20
2022-11-19T17:35:32.993Z,14.23
2022-11-19T17:40:36.666Z,14.17
2022-11-19T17:45:41.903Z,14.30
2022-11-19T17:50:45.477Z,14.41
2022-11-19T17:55:50.419Z,14.50
2022-11-19T18:00:55.643Z,14.62
2022-11-19T18:05:59.488Z,14.74
2022-11-19T18:11:03.466Z,15.11
2022-11-19T18:16:14.447Z,15.26
2022-11-19T18:21:19.921Z,15.25
2022-11-19T18:26:24.313Z,15.24
2022-11-19T18:31:30.630Z,15.33
2022-11-19T18:36:34.189Z,15.36
2022-11-19T18:41:37.881Z,15.54
2022-11-19T18:46:43.110Z,15.69
2022-11-19T18:51:46.648Z,15.67
2022-11-19T18:56:50.230Z,15.78
2022-11-19T19:01:55.507Z,15.86
2022-11-19T19:06:59.422Z,15.98
2022-11-19T19:12:03.032Z,16.08
2022-11-19T19:17:08.221Z,16.01
2022-11-19T19:22:12.550Z,16.06
2022-11-19T19:27:16.397Z,16.26
2022-11-19T19:32:21.560Z,16.34
2022-11-19T19:37:25.099Z,16.36
2022-11-19T19:42:29.924Z,16.42
2022-11-19T19:47:35.174Z,16.49
2022-11-19T19:52:38.789Z,16.54
2022-11-19T19:57:42.314Z,16.66
2022-11-19T20:02:48.881Z,16.75
2022-11-19T20:07:52.437Z,16.81
2022-11-19T20:12:56.048Z,16.92
2022-11-19T20:18:01.285Z,16.84
2022-11-19T20:23:04.859Z,16.87
2022-11-19T20:28:08.750Z,17.01
2022-11-19T20:33:14.830Z,17.09
2022-11-19T20:38:18.437Z,16.91
2022-11-19T20:43:22.006Z,16.89
2022-11-19T20:48:27.229Z,16.95
2022-11-19T20:53:30.832Z,17.10
2022-11-19T20:58:34.629Z,17.23
2022-11-19T21:03:39.872Z,17.38
2022-11-19T21:08:43.502Z,17.30
2022-11-19T21:13:47.099Z,17.29
2022-11-19T21:18:52.594Z,17.34
2022-11-19T21:23:56.661Z,17.42
2022-11-19T21:29:00.766Z,17.39
2022-11-19T21:34:06.517Z,17.32
2022-11-19T21:39:09.542Z,17.32
2022-11-19T21:44:18.051Z,17.38
2022-11-19T21:49:27.121Z,17.52
2022-11-19T21:54:31.378Z,17.64
2022-11-19T21:59:34.957Z,17.73
2022-11-19T22:04:40.211Z,17.62
2022-11-19T22:09:43.738Z,17.63
2022-11-19T22:14:47.309Z,17.66
2022-11-19T22:19:52.556Z,17.70
2022-11-19T22:24:56.097Z,17.69
2022-11-19T22:30:03.104Z,17.57
2022-11-19T22:35:11.278Z,17.40
2022-11-19T22:40:15.225Z,17.11
2022-11-19T22:45:18.762Z,16.90
2022-11-19T22:50:24.001Z,16.78
2022-11-19T22:55:27.575Z,16.66
2022-11-19T23:00:42.797Z,16.58
2022-11-19T23:05:51.598Z,16.48
2022-11-19T23:10:59.247Z,16.49
2022-11-19T23:16:05.487Z,16.50
2022-11-19T23:21:12.312Z,16.41
2022-11-19T23:26:18.335Z,16.43
2022-11-19T23:31:23.867Z,16.24
2022-11-19T23:36:30.113Z,16.16
2022-11-19T23:41:34.719Z,15.84
2022-11-19T23:46:38.500Z,15.46
2022-11-19T23:51:43.764Z,15.26
2022-11-19T23:56:47.363Z,15.23
